sensor_id;sensor_type;location;lat;lon;timestamp;temperature;humidity
17740;DHT22;8990;33.226;-97.150;2024-02-16T00:02:06;19.00;99.90
17740;DHT22;8990;33.226;-97.150;2024-02-16T00:04:35;19.00;99.90
17740;DHT22;8990;33.226;-97.150;2024-02-16T00:07:04;18.90;99.90
17740;DHT22;8990;33.226;-97.150;2024-02-16T00:09:33;18.90;99.90
17740;DHT22;8990;33.226;-97.150;2024-02-16T00:12:02;18.80;99.90
17740;DHT22;8990;33.226;-97.150;2024-02-16T00:14:32;18.70;99.90
17740;DHT22;8990;33.226;-97.150;2024-02-16T00:17:00;18.70;99.90
17740;DHT22;8990;33.226;-97.150;2024-02-16T00:19:31;18.60;99.90
17740;DHT22;8990;33.226;-97.150;2024-02-16T00:22:01;18.60;99.90
17740;DHT22;8990;33.226;-97.150;2024-02-16T00:24:30;18.50;99.90
17740;DHT22;8990;33.226;-97.150;2024-02-16T00:27:00;18.40;99.90
17740;DHT22;8990;33.226;-97.150;2024-02-16T00:29:30;18.40;99.90
17740;DHT22;8990;33.226;-97.150;2024-02-16T00:31:59;18.30;99.90
17740;DHT22;8990;33.226;-97.150;2024-02-16T00:34:28;18.30;99.90
17740;DHT22;8990;33.226;-97.150;2024-02-16T00:36:59;18.20;99.90
17740;DHT22;8990;33.226;-97.150;2024-02-16T00:39:28;18.20;99.90
17740;DHT22;8990;33.226;-97.150;2024-02-16T00:41:57;18.10;99.90
17740;DHT22;8990;33.226;-97.150;2024-02-16T00:44:25;18.10;99.90
17740;DHT22;8990;33.226;-97.150;2024-02-16T00:46:54;18.00;99.90
17740;DHT22;8990;33.226;-97.150;2024-02-16T00:49:23;18.00;99.90
17740;DHT22;8990;33.226;-97.150;2024-02-16T00:51:52;17.90;99.90
17740;DHT22;8990;33.226;-97.150;2024-02-16T00:54:23;17.90;99.90
17740;DHT22;8990;33.226;-97.150;2024-02-16T00:56:53;17.90;99.90
17740;DHT22;8990;33.226;-97.150;2024-02-16T00:59:22;17.90;99.90
17740;DHT22;8990;33.226;-97.150;2024-02-16T01:01:52;17.80;99.90
17740;DHT22;8990;33.226;-97.150;2024-02-16T01:04:21;17.80;99.90
17740;DHT22;8990;33.226;-97.150;2024-02-16T01:06:51;17.80;99.90
17740;DHT22;8990;33.226;-97.150;2024-02-16T01:09:19;17.70;99.90
17740;DHT22;8990;33.226;-97.150;2024-02-16T01:11:50;17.70;99.90
17740;DHT22;8990;33.226;-97.150;2024-02-16T01:14:19;17.70;99.90
17740;DHT22;8990;33.226;-97.150;2024-02-16T01:16:48;17.70;99.90
17740;DHT22;8990;33.226;-97.150;2024-02-16T01:19:17;17.60;99.90
17740;DHT22;8990;33.226;-97.150;2024-02-16T01:21:46;17.60;99.90
17740;DHT22;8990;33.226;-97.150;2024-02-16T01:24:19;17.50;99.90
17740;DHT22;8990;33.226;-97.150;2024-02-16T01:26:51;17.50;99.90
17740;DHT22;8990;33.226;-97.150;2024-02-16T01:29:21;17.50;99.90
17740;DHT22;8990;33.226;-97.150;2024-02-16T01:31:50;17.50;99.90
17740;DHT22;8990;33.226;-97.150;2024-02-16T01:34:19;17.40;99.90
17740;DHT22;8990;33.226;-97.150;2024-02-16T01:36:48;17.40;99.90
17740;DHT22;8990;33.226;-97.150;2024-02-16T01:39:17;17.40;99.90
17740;DHT22;8990;33.226;-97.150;2024-02-16T01:41:46;17.40;99.90
17740;DHT22;8990;33.226;-97.150;2024-02-16T01:44:17;17.30;99.90
17740;DHT22;8990;33.226;-97.150;2024-02-16T01:46:46;17.30;99.90
17740;DHT22;8990;33.226;-97.150;2024-02-16T01:49:15;17.30;99.90
17740;DHT22;8990;33.226;-97.150;2024-02-16T01:51:44;17.20;99.90
17740;DHT22;8990;33.226;-97.150;2024-02-16T01:54:15;17.20;99.90
17740;DHT22;8990;33.226;-97.150;2024-02-16T01:56:46;17.20;99.90
17740;DHT22;8990;33.226;-97.150;2024-02-16T01:59:17;17.20;99.90
17740;DHT22;8990;33.226;-97.150;2024-02-16T02:01:47;17.20;99.90
17740;DHT22;8990;33.226;-97.150;2024-02-16T02:04:17;17.10;99.90
17740;DHT22;8990;33.226;-97.150;2024-02-16T02:06:47;17.10;99.90
17740;DHT22;8990;33.226;-97.150;2024-02-16T02:09:15;17.10;99.90
17740;DHT22;8990;33.226;-97.150;2024-02-16T02:11:45;17.10;99.90
17740;DHT22;8990;33.226;-97.150;2024-02-16T02:14:14;17.00;99.90
17740;DHT22;8990;33.226;-97.150;2024-02-16T02:16:45;17.00;99.90
17740;DHT22;8990;33.226;-97.150;2024-02-16T02:19:14;16.90;99.90
17740;DHT22;8990;33.226;-97.150;2024-02-16T02:21:43;16.90;99.90
17740;DHT22;8990;33.226;-97.150;2024-02-16T02:24:13;16.90;99.90
17740;DHT22;8990;33.226;-97.150;2024-02-16T02:26:43;16.90;99.90
17740;DHT22;8990;33.226;-97.150;2024-02-16T02:29:12;16.80;99.90
17740;DHT22;8990;33.226;-97.150;2024-02-16T02:31:41;16.70;99.90
17740;DHT22;8990;33.226;-97.150;2024-02-16T02:34:10;16.60;99.90
17740;DHT22;8990;33.226;-97.150;2024-02-16T02:36:40;16.50;99.90
17740;DHT22;8990;33.226;-97.150;2024-02-16T02:39:08;16.40;99.90
17740;DHT22;8990;33.226;-97.150;2024-02-16T02:41:39;16.20;99.90
17740;DHT22;8990;33.226;-97.150;2024-02-16T02:44:08;16.20;99.90
17740;DHT22;8990;33.226;-97.150;2024-02-16T02:46:38;16.20;99.90
17740;DHT22;8990;33.226;-97.150;2024-02-16T02:49:07;16.10;99.90
17740;DHT22;8990;33.226;-97.150;2024-02-16T02:51:36;16.00;99.90
17740;DHT22;8990;33.226;-97.150;2024-02-16T02:54:05;16.00;99.90
17740;DHT22;8990;33.226;-97.150;2024-02-16T02:56:34;15.90;99.90
17740;DHT22;8990;33.226;-97.150;2024-02-16T02:59:05;15.80;99.90
17740;DHT22;8990;33.226;-97.150;2024-02-16T03:01:35;15.80;99.90
17740;DHT22;8990;33.226;-97.150;2024-02-16T03:04:04;15.80;99.90
17740;DHT22;8990;33.226;-97.150;2024-02-16T03:06:34;15.70;99.90
17740;DHT22;8990;33.226;-97.150;2024-02-16T03:09:03;15.70;99.90
17740;DHT22;8990;33.226;-97.150;2024-02-16T03:11:32;15.70;99.90
17740;DHT22;8990;33.226;-97.150;2024-02-16T03:14:01;15.60;99.90
17740;DHT22;8990;33.226;-97.150;2024-02-16T03:16:33;15.60;99.90
17740;DHT22;8990;33.226;-97.150;2024-02-16T03:19:06;15.70;99.90
17740;DHT22;8990;33.226;-97.150;2024-02-16T03:21:35;15.80;99.90
17740;DHT22;8990;33.226;-97.150;2024-02-16T03:24:05;15.80;99.90
17740;DHT22;8990;33.226;-97.150;2024-02-16T03:26:34;15.90;99.90
17740;DHT22;8990;33.226;-97.150;2024-02-16T03:29:03;16.00;99.90
17740;DHT22;8990;33.226;-97.150;2024-02-16T03:31:33;16.00;99.90
17740;DHT22;8990;33.226;-97.150;2024-02-16T03:34:03;16.00;99.90
17740;DHT22;8990;33.226;-97.150;2024-02-16T03:36:32;16.10;99.90
17740;DHT22;8990;33.226;-97.150;2024-02-16T03:39:01;16.10;99.90
17740;DHT22;8990;33.226;-97.150;2024-02-16T03:41:30;16.10;99.90
17740;DHT22;8990;33.226;-97.150;2024-02-16T03:44:00;16.20;99.90
17740;DHT22;8990;33.226;-97.150;2024-02-16T03:46:29;16.10;99.90
17740;DHT22;8990;33.226;-97.150;2024-02-16T03:49:00;16.20;99.90
17740;DHT22;8990;33.226;-97.150;2024-02-16T03:51:29;16.10;99.90
17740;DHT22;8990;33.226;-97.150;2024-02-16T03:53:58;16.20;99.90
17740;DHT22;8990;33.226;-97.150;2024-02-16T03:56:27;16.20;99.90
17740;DHT22;8990;33.226;-97.150;2024-02-16T03:58:56;16.20;99.90
17740;DHT22;8990;33.226;-97.150;2024-02-16T04:01:25;16.20;99.90
17740;DHT22;8990;33.226;-97.150;2024-02-16T04:03:54;16.20;99.90
17740;DHT22;8990;33.226;-97.150;2024-02-16T04:06:25;16.20;99.90
17740;DHT22;8990;33.226;-97.150;2024-02-16T04:08:54;16.10;99.90
17740;DHT22;8990;33.226;-97.150;2024-02-16T04:11:22;16.10;99.90
17740;DHT22;8990;33.226;-97.150;2024-02-16T04:13:51;16.10;99.90
17740;DHT22;8990;33.226;-97.150;2024-02-16T04:16:20;16.10;99.90
17740;DHT22;8990;33.226;-97.150;2024-02-16T04:18:52;16.10;99.90
17740;DHT22;8990;33.226;-97.150;2024-02-16T04:21:21;16.10;99.90
17740;DHT22;8990;33.226;-97.150;2024-02-16T04:23:52;16.00;99.90
17740;DHT22;8990;33.226;-97.150;2024-02-16T04:26:20;16.10;99.90
17740;DHT22;8990;33.226;-97.150;2024-02-16T04:28:49;16.10;99.90
17740;DHT22;8990;33.226;-97.150;2024-02-16T04:31:18;16.10;99.90
17740;DHT22;8990;33.226;-97.150;2024-02-16T04:33:47;16.10;99.90
17740;DHT22;8990;33.226;-97.150;2024-02-16T04:36:17;16.00;99.90
17740;DHT22;8990;33.226;-97.150;2024-02-16T04:38:45;16.00;99.90
17740;DHT22;8990;33.226;-97.150;2024-02-16T04:41:16;16.00;99.90
17740;DHT22;8990;33.226;-97.150;2024-02-16T04:43:45;16.00;99.90
17740;DHT22;8990;33.226;-97.150;2024-02-16T04:46:17;16.00;99.90
17740;DHT22;8990;33.226;-97.150;2024-02-16T04:48:46;16.00;99.90
17740;DHT22;8990;33.226;-97.150;2024-02-16T04:51:15;16.00;99.90
17740;DHT22;8990;33.226;-97.150;2024-02-16T04:53:44;16.00;99.90
17740;DHT22;8990;33.226;-97.150;2024-02-16T04:56:15;16.00;99.90
17740;DHT22;8990;33.226;-97.150;2024-02-16T04:58:44;15.90;99.90
17740;DHT22;8990;33.226;-97.150;2024-02-16T05:01:13;16.00;99.90
17740;DHT22;8990;33.226;-97.150;2024-02-16T05:03:42;15.90;99.90
17740;DHT22;8990;33.226;-97.150;2024-02-16T05:06:11;15.90;99.90
17740;DHT22;8990;33.226;-97.150;2024-02-16T05:08:40;15.90;99.90
17740;DHT22;8990;33.226;-97.150;2024-02-16T05:11:10;15.90;99.90
17740;DHT22;8990;33.226;-97.150;2024-02-16T05:13:41;15.90;99.90
17740;DHT22;8990;33.226;-97.150;2024-02-16T05:16:11;15.90;99.90
17740;DHT22;8990;33.226;-97.150;2024-02-16T05:18:40;15.90;99.90
17740;DHT22;8990;33.226;-97.150;2024-02-16T05:21:09;15.90;99.90
17740;DHT22;8990;33.226;-97.150;2024-02-16T05:23:38;15.90;99.90
17740;DHT22;8990;33.226;-97.150;2024-02-16T05:26:07;15.90;99.90
17740;DHT22;8990;33.226;-97.150;2024-02-16T05:28:36;15.90;99.90
17740;DHT22;8990;33.226;-97.150;2024-02-16T05:31:14;15.90;99.90
17740;DHT22;8990;33.226;-97.150;2024-02-16T05:33:44;15.80;99.90
17740;DHT22;8990;33.226;-97.150;2024-02-16T05:36:17;15.80;99.90
17740;DHT22;8990;33.226;-97.150;2024-02-16T05:38:51;15.80;99.90
17740;DHT22;8990;33.226;-97.150;2024-02-16T05:41:23;15.80;99.90
17740;DHT22;8990;33.226;-97.150;2024-02-16T05:47:42;15.80;99.90
17740;DHT22;8990;33.226;-97.150;2024-02-16T05:50:12;15.80;99.90
17740;DHT22;8990;33.226;-97.150;2024-02-16T05:52:41;15.80;99.90
17740;DHT22;8990;33.226;-97.150;2024-02-16T05:55:11;15.80;99.90
17740;DHT22;8990;33.226;-97.150;2024-02-16T05:57:40;15.80;99.90
17740;DHT22;8990;33.226;-97.150;2024-02-16T06:00:10;15.80;99.90
17740;DHT22;8990;33.226;-97.150;2024-02-16T06:02:42;15.70;99.90
17740;DHT22;8990;33.226;-97.150;2024-02-16T06:05:11;15.70;99.90
17740;DHT22;8990;33.226;-97.150;2024-02-16T06:07:40;15.70;99.90
17740;DHT22;8990;33.226;-97.150;2024-02-16T06:10:10;15.80;99.90
17740;DHT22;8990;33.226;-97.150;2024-02-16T06:12:39;15.70;99.90
17740;DHT22;8990;33.226;-97.150;2024-02-16T06:15:09;15.70;99.90
17740;DHT22;8990;33.226;-97.150;2024-02-16T06:17:38;15.70;99.90
17740;DHT22;8990;33.226;-97.150;2024-02-16T06:20:10;15.70;99.90
17740;DHT22;8990;33.226;-97.150;2024-02-16T06:22:39;15.70;99.90
17740;DHT22;8990;33.226;-97.150;2024-02-16T06:25:08;15.60;99.90
17740;DHT22;8990;33.226;-97.150;2024-02-16T06:27:37;15.60;99.90
17740;DHT22;8990;33.226;-97.150;2024-02-16T06:30:07;15.60;99.90
17740;DHT22;8990;33.226;-97.150;2024-02-16T06:32:40;15.60;99.90
17740;DHT22;8990;33.226;-97.150;2024-02-16T06:35:11;15.60;99.90
17740;DHT22;8990;33.226;-97.150;2024-02-16T06:37:40;15.60;99.90
17740;DHT22;8990;33.226;-97.150;2024-02-16T06:40:09;15.50;99.90
17740;DHT22;8990;33.226;-97.150;2024-02-16T06:42:39;15.50;99.90
17740;DHT22;8990;33.226;-97.150;2024-02-16T06:45:08;15.50;99.90
17740;DHT22;8990;33.226;-97.150;2024-02-16T06:47:38;15.50;99.90
17740;DHT22;8990;33.226;-97.150;2024-02-16T06:50:07;15.50;99.90
17740;DHT22;8990;33.226;-97.150;2024-02-16T06:52:41;15.40;99.90
17740;DHT22;8990;33.226;-97.150;2024-02-16T06:55:10;15.40;99.90
17740;DHT22;8990;33.226;-97.150;2024-02-16T06:57:39;15.40;99.90
17740;DHT22;8990;33.226;-97.150;2024-02-16T07:00:09;15.40;99.90
17740;DHT22;8990;33.226;-97.150;2024-02-16T07:02:39;15.40;99.90
17740;DHT22;8990;33.226;-97.150;2024-02-16T07:05:09;15.40;99.90
17740;DHT22;8990;33.226;-97.150;2024-02-16T07:07:40;15.40;99.90
17740;DHT22;8990;33.226;-97.150;2024-02-16T07:10:09;15.40;99.90
17740;DHT22;8990;33.226;-97.150;2024-02-16T07:12:40;15.30;99.90
17740;DHT22;8990;33.226;-97.150;2024-02-16T07:15:09;15.30;99.90
17740;DHT22;8990;33.226;-97.150;2024-02-16T07:17:39;15.40;99.90
17740;DHT22;8990;33.226;-97.150;2024-02-16T07:20:09;15.30;99.90
17740;DHT22;8990;33.226;-97.150;2024-02-16T07:22:43;15.30;99.90
17740;DHT22;8990;33.226;-97.150;2024-02-16T07:25:13;15.30;99.90
17740;DHT22;8990;33.226;-97.150;2024-02-16T07:27:42;15.30;99.90
17740;DHT22;8990;33.226;-97.150;2024-02-16T07:30:12;15.30;99.90
17740;DHT22;8990;33.226;-97.150;2024-02-16T07:32:41;15.30;99.90
17740;DHT22;8990;33.226;-97.150;2024-02-16T07:35:13;15.30;99.90
17740;DHT22;8990;33.226;-97.150;2024-02-16T07:37:44;15.20;99.90
17740;DHT22;8990;33.226;-97.150;2024-02-16T07:40:13;15.30;99.90
17740;DHT22;8990;33.226;-97.150;2024-02-16T07:42:42;15.30;99.90
17740;DHT22;8990;33.226;-97.150;2024-02-16T07:45:12;15.30;99.90
17740;DHT22;8990;33.226;-97.150;2024-02-16T07:47:41;15.30;99.90
17740;DHT22;8990;33.226;-97.150;2024-02-16T07:50:10;15.30;99.90
17740;DHT22;8990;33.226;-97.150;2024-02-16T07:52:40;15.20;99.90
17740;DHT22;8990;33.226;-97.150;2024-02-16T07:55:11;15.20;99.90
17740;DHT22;8990;33.226;-97.150;2024-02-16T07:57:40;15.20;99.90
17740;DHT22;8990;33.226;-97.150;2024-02-16T08:00:09;15.20;99.90
17740;DHT22;8990;33.226;-97.150;2024-02-16T08:02:38;15.20;99.90
17740;DHT22;8990;33.226;-97.150;2024-02-16T08:05:10;15.20;99.90
17740;DHT22;8990;33.226;-97.150;2024-02-16T08:07:40;15.10;99.90
17740;DHT22;8990;33.226;-97.150;2024-02-16T08:10:11;15.10;99.90
17740;DHT22;8990;33.226;-97.150;2024-02-16T08:12:40;15.10;99.90
17740;DHT22;8990;33.226;-97.150;2024-02-16T08:15:10;15.10;99.90
17740;DHT22;8990;33.226;-97.150;2024-02-16T08:17:40;15.10;99.90
17740;DHT22;8990;33.226;-97.150;2024-02-16T08:20:10;15.10;99.90
17740;DHT22;8990;33.226;-97.150;2024-02-16T08:22:39;15.10;99.90
17740;DHT22;8990;33.226;-97.150;2024-02-16T08:25:10;15.10;99.90
17740;DHT22;8990;33.226;-97.150;2024-02-16T08:27:38;15.10;99.90
17740;DHT22;8990;33.226;-97.150;2024-02-16T08:30:08;15.10;99.90
17740;DHT22;8990;33.226;-97.150;2024-02-16T08:32:38;15.10;99.90
17740;DHT22;8990;33.226;-97.150;2024-02-16T08:35:07;15.10;99.90
17740;DHT22;8990;33.226;-97.150;2024-02-16T08:37:37;15.10;99.90
17740;DHT22;8990;33.226;-97.150;2024-02-16T08:40:07;15.10;99.90
17740;DHT22;8990;33.226;-97.150;2024-02-16T08:42:42;15.10;99.90
17740;DHT22;8990;33.226;-97.150;2024-02-16T08:45:11;15.10;99.90
17740;DHT22;8990;33.226;-97.150;2024-02-16T08:47:42;15.10;99.90
17740;DHT22;8990;33.226;-97.150;2024-02-16T08:50:11;15.10;99.90
17740;DHT22;8990;33.226;-97.150;2024-02-16T08:52:40;15.10;99.90
17740;DHT22;8990;33.226;-97.150;2024-02-16T08:55:09;15.10;99.90
17740;DHT22;8990;33.226;-97.150;2024-02-16T08:57:38;15.10;99.90
17740;DHT22;8990;33.226;-97.150;2024-02-16T09:00:10;15.10;99.90
17740;DHT22;8990;33.226;-97.150;2024-02-16T09:02:39;15.10;99.90
17740;DHT22;8990;33.226;-97.150;2024-02-16T09:05:08;15.10;99.90
17740;DHT22;8990;33.226;-97.150;2024-02-16T09:07:38;15.10;99.90
17740;DHT22;8990;33.226;-97.150;2024-02-16T09:10:07;15.00;99.90
17740;DHT22;8990;33.226;-97.150;2024-02-16T09:12:36;15.00;99.90
17740;DHT22;8990;33.226;-97.150;2024-02-16T09:15:08;15.00;99.90
17740;DHT22;8990;33.226;-97.150;2024-02-16T09:17:38;15.10;99.90
17740;DHT22;8990;33.226;-97.150;2024-02-16T09:20:08;15.00;99.90
17740;DHT22;8990;33.226;-97.150;2024-02-16T09:22:40;15.00;99.90
17740;DHT22;8990;33.226;-97.150;2024-02-16T09:25:09;15.00;99.90
17740;DHT22;8990;33.226;-97.150;2024-02-16T09:27:40;14.90;99.90
17740;DHT22;8990;33.226;-97.150;2024-02-16T09:30:14;14.90;99.90
17740;DHT22;8990;33.226;-97.150;2024-02-16T09:32:43;14.90;99.90
17740;DHT22;8990;33.226;-97.150;2024-02-16T09:35:12;14.90;99.90
17740;DHT22;8990;33.226;-97.150;2024-02-16T09:37:41;14.90;99.90
17740;DHT22;8990;33.226;-97.150;2024-02-16T09:40:12;14.90;99.90
17740;DHT22;8990;33.226;-97.150;2024-02-16T09:42:42;14.80;99.90
17740;DHT22;8990;33.226;-97.150;2024-02-16T09:45:18;14.80;99.90
17740;DHT22;8990;33.226;-97.150;2024-02-16T09:47:47;14.80;99.90
17740;DHT22;8990;33.226;-97.150;2024-02-16T09:50:16;14.80;99.90
17740;DHT22;8990;33.226;-97.150;2024-02-16T09:52:47;14.80;99.90
17740;DHT22;8990;33.226;-97.150;2024-02-16T09:55:17;14.90;99.90
17740;DHT22;8990;33.226;-97.150;2024-02-16T09:57:46;14.80;99.90
17740;DHT22;8990;33.226;-97.150;2024-02-16T10:00:17;14.80;99.90
17740;DHT22;8990;33.226;-97.150;2024-02-16T10:02:46;14.80;99.90
17740;DHT22;8990;33.226;-97.150;2024-02-16T10:05:17;14.80;99.90
17740;DHT22;8990;33.226;-97.150;2024-02-16T10:07:46;14.70;99.90
17740;DHT22;8990;33.226;-97.150;2024-02-16T10:10:21;14.80;99.90
17740;DHT22;8990;33.226;-97.150;2024-02-16T10:13:00;14.70;99.90
17740;DHT22;8990;33.226;-97.150;2024-02-16T10:15:31;14.70;99.90
17740;DHT22;8990;33.226;-97.150;2024-02-16T10:18:00;14.70;99.90
17740;DHT22;8990;33.226;-97.150;2024-02-16T10:20:29;14.70;99.90
17740;DHT22;8990;33.226;-97.150;2024-02-16T10:23:06;14.70;99.90
17740;DHT22;8990;33.226;-97.150;2024-02-16T10:25:35;14.70;99.90
17740;DHT22;8990;33.226;-97.150;2024-02-16T10:28:06;14.70;99.90
17740;DHT22;8990;33.226;-97.150;2024-02-16T10:30:38;14.70;99.90
17740;DHT22;8990;33.226;-97.150;2024-02-16T10:33:07;14.70;99.90
17740;DHT22;8990;33.226;-97.150;2024-02-16T10:35:37;14.70;99.90
17740;DHT22;8990;33.226;-97.150;2024-02-16T10:38:06;14.60;99.90
17740;DHT22;8990;33.226;-97.150;2024-02-16T10:40:38;14.60;99.90
17740;DHT22;8990;33.226;-97.150;2024-02-16T10:43:22;14.60;99.90
17740;DHT22;8990;33.226;-97.150;2024-02-16T10:46:20;14.60;99.90
17740;DHT22;8990;33.226;-97.150;2024-02-16T10:48:55;14.50;99.90
17740;DHT22;8990;33.226;-97.150;2024-02-16T10:51:30;14.50;99.90
17740;DHT22;8990;33.226;-97.150;2024-02-16T10:54:06;14.60;99.90
17740;DHT22;8990;33.226;-97.150;2024-02-16T10:56:43;14.50;99.90
17740;DHT22;8990;33.226;-97.150;2024-02-16T10:59:19;14.50;99.90
17740;DHT22;8990;33.226;-97.150;2024-02-16T11:02:00;14.50;99.90
17740;DHT22;8990;33.226;-97.150;2024-02-16T11:04:39;14.50;99.90
17740;DHT22;8990;33.226;-97.150;2024-02-16T11:07:15;14.50;99.90
17740;DHT22;8990;33.226;-97.150;2024-02-16T11:09:52;14.50;99.90
17740;DHT22;8990;33.226;-97.150;2024-02-16T11:12:24;14.50;99.90
17740;DHT22;8990;33.226;-97.150;2024-02-16T11:14:59;14.50;99.90
17740;DHT22;8990;33.226;-97.150;2024-02-16T11:17:34;14.50;99.90
17740;DHT22;8990;33.226;-97.150;2024-02-16T11:20:13;14.40;99.90
17740;DHT22;8990;33.226;-97.150;2024-02-16T11:22:46;14.40;99.90
17740;DHT22;8990;33.226;-97.150;2024-02-16T11:25:31;14.40;99.90
17740;DHT22;8990;33.226;-97.150;2024-02-16T11:28:02;14.40;99.90
17740;DHT22;8990;33.226;-97.150;2024-02-16T11:30:34;14.40;99.90
17740;DHT22;8990;33.226;-97.150;2024-02-16T11:33:12;14.40;99.90
17740;DHT22;8990;33.226;-97.150;2024-02-16T11:35:54;14.40;99.90
17740;DHT22;8990;33.226;-97.150;2024-02-16T11:38:30;14.40;99.90
17740;DHT22;8990;33.226;-97.150;2024-02-16T11:41:09;14.40;99.90
17740;DHT22;8990;33.226;-97.150;2024-02-16T11:43:40;14.40;99.90
17740;DHT22;8990;33.226;-97.150;2024-02-16T11:46:18;14.40;99.90
17740;DHT22;8990;33.226;-97.150;2024-02-16T11:48:51;14.40;99.90
17740;DHT22;8990;33.226;-97.150;2024-02-16T11:51:27;14.40;99.90
17740;DHT22;8990;33.226;-97.150;2024-02-16T11:54:01;14.40;99.90
17740;DHT22;8990;33.226;-97.150;2024-02-16T11:56:33;14.40;99.90
17740;DHT22;8990;33.226;-97.150;2024-02-16T11:59:04;14.40;99.90
17740;DHT22;8990;33.226;-97.150;2024-02-16T12:01:39;14.40;99.90
17740;DHT22;8990;33.226;-97.150;2024-02-16T12:04:22;14.40;99.90
17740;DHT22;8990;33.226;-97.150;2024-02-16T12:06:55;14.40;99.90
17740;DHT22;8990;33.226;-97.150;2024-02-16T12:09:42;14.40;99.90
17740;DHT22;8990;33.226;-97.150;2024-02-16T12:12:18;14.40;99.90
17740;DHT22;8990;33.226;-97.150;2024-02-16T12:14:50;14.40;99.90
17740;DHT22;8990;33.226;-97.150;2024-02-16T12:17:23;14.40;99.90
17740;DHT22;8990;33.226;-97.150;2024-02-16T12:19:59;14.40;99.90
17740;DHT22;8990;33.226;-97.150;2024-02-16T12:22:36;14.40;99.90
17740;DHT22;8990;33.226;-97.150;2024-02-16T12:25:23;14.40;99.90
17740;DHT22;8990;33.226;-97.150;2024-02-16T12:27:54;14.40;99.90
17740;DHT22;8990;33.226;-97.150;2024-02-16T12:30:25;14.40;99.90
17740;DHT22;8990;33.226;-97.150;2024-02-16T12:33:01;14.40;99.90
17740;DHT22;8990;33.226;-97.150;2024-02-16T12:35:42;14.40;99.90
17740;DHT22;8990;33.226;-97.150;2024-02-16T12:38:11;14.40;99.90
17740;DHT22;8990;33.226;-97.150;2024-02-16T12:40:46;14.40;99.90
17740;DHT22;8990;33.226;-97.150;2024-02-16T12:43:21;14.40;99.90
17740;DHT22;8990;33.226;-97.150;2024-02-16T12:45:54;14.50;99.90
17740;DHT22;8990;33.226;-97.150;2024-02-16T12:48:30;14.50;99.90
17740;DHT22;8990;33.226;-97.150;2024-02-16T12:51:09;14.50;99.90
17740;DHT22;8990;33.226;-97.150;2024-02-16T12:53:46;14.50;99.90
17740;DHT22;8990;33.226;-97.150;2024-02-16T12:56:19;14.50;99.90
17740;DHT22;8990;33.226;-97.150;2024-02-16T12:58:51;14.50;99.90
17740;DHT22;8990;33.226;-97.150;2024-02-16T13:01:25;14.50;99.90
17740;DHT22;8990;33.226;-97.150;2024-02-16T13:04:03;14.60;99.90
17740;DHT22;8990;33.226;-97.150;2024-02-16T13:06:37;14.50;99.90
17740;DHT22;8990;33.226;-97.150;2024-02-16T13:09:06;14.60;99.90
17740;DHT22;8990;33.226;-97.150;2024-02-16T13:11:35;14.50;99.90
17740;DHT22;8990;33.226;-97.150;2024-02-16T13:14:04;14.60;99.90
17740;DHT22;8990;33.226;-97.150;2024-02-16T13:16:33;14.60;99.90
17740;DHT22;8990;33.226;-97.150;2024-02-16T13:19:02;14.60;99.90
17740;DHT22;8990;33.226;-97.150;2024-02-16T13:21:33;14.60;99.90
17740;DHT22;8990;33.226;-97.150;2024-02-16T13:24:02;14.60;99.90
17740;DHT22;8990;33.226;-97.150;2024-02-16T13:29:36;14.60;99.90
17740;DHT22;8990;33.226;-97.150;2024-02-16T13:32:06;14.60;99.90
17740;DHT22;8990;33.226;-97.150;2024-02-16T13:34:35;14.60;99.90
17740;DHT22;8990;33.226;-97.150;2024-02-16T13:37:05;14.60;99.90
17740;DHT22;8990;33.226;-97.150;2024-02-16T13:39:34;14.60;99.90
17740;DHT22;8990;33.226;-97.150;2024-02-16T13:42:03;14.60;99.90
17740;DHT22;8990;33.226;-97.150;2024-02-16T13:44:33;14.70;99.90
17740;DHT22;8990;33.226;-97.150;2024-02-16T13:47:01;14.70;99.90
17740;DHT22;8990;33.226;-97.150;2024-02-16T13:49:30;14.70;99.90
17740;DHT22;8990;33.226;-97.150;2024-02-16T13:51:59;14.70;99.90
17740;DHT22;8990;33.226;-97.150;2024-02-16T13:54:30;14.70;99.90
17740;DHT22;8990;33.226;-97.150;2024-02-16T13:56:59;14.80;99.90
17740;DHT22;8990;33.226;-97.150;2024-02-16T13:59:28;14.80;99.90
17740;DHT22;8990;33.226;-97.150;2024-02-16T14:01:58;14.90;99.90
17740;DHT22;8990;33.226;-97.150;2024-02-16T14:04:27;14.90;99.90
17740;DHT22;8990;33.226;-97.150;2024-02-16T14:06:56;14.90;99.90
17740;DHT22;8990;33.226;-97.150;2024-02-16T14:09:24;14.90;99.90
17740;DHT22;8990;33.226;-97.150;2024-02-16T14:11:55;15.00;99.90
17740;DHT22;8990;33.226;-97.150;2024-02-16T14:14:26;15.00;99.90
17740;DHT22;8990;33.226;-97.150;2024-02-16T14:16:55;15.00;99.90
17740;DHT22;8990;33.226;-97.150;2024-02-16T14:19:24;15.10;99.90
17740;DHT22;8990;33.226;-97.150;2024-02-16T14:21:54;15.10;99.90
17740;DHT22;8990;33.226;-97.150;2024-02-16T14:24:23;15.20;99.90
17740;DHT22;8990;33.226;-97.150;2024-02-16T14:26:54;15.20;99.90
17740;DHT22;8990;33.226;-97.150;2024-02-16T14:29:22;15.30;99.90
17740;DHT22;8990;33.226;-97.150;2024-02-16T14:31:51;15.40;99.90
17740;DHT22;8990;33.226;-97.150;2024-02-16T14:34:20;15.40;99.90
17740;DHT22;8990;33.226;-97.150;2024-02-16T14:36:49;15.50;99.90
17740;DHT22;8990;33.226;-97.150;2024-02-16T14:39:18;15.60;99.90
17740;DHT22;8990;33.226;-97.150;2024-02-16T14:41:47;15.60;99.90
17740;DHT22;8990;33.226;-97.150;2024-02-16T14:44:18;15.70;99.90
17740;DHT22;8990;33.226;-97.150;2024-02-16T14:46:47;15.80;99.90
17740;DHT22;8990;33.226;-97.150;2024-02-16T14:49:16;15.90;99.90
17740;DHT22;8990;33.226;-97.150;2024-02-16T14:51:48;16.00;99.90
17740;DHT22;8990;33.226;-97.150;2024-02-16T14:54:16;16.00;99.90
17740;DHT22;8990;33.226;-97.150;2024-02-16T14:56:45;16.10;99.90
17740;DHT22;8990;33.226;-97.150;2024-02-16T14:59:17;16.20;99.90
17740;DHT22;8990;33.226;-97.150;2024-02-16T15:01:46;16.20;99.90
17740;DHT22;8990;33.226;-97.150;2024-02-16T15:04:15;16.30;99.90
17740;DHT22;8990;33.226;-97.150;2024-02-16T15:06:44;16.30;99.90
17740;DHT22;8990;33.226;-97.150;2024-02-16T15:09:13;16.40;99.90
17740;DHT22;8990;33.226;-97.150;2024-02-16T15:11:42;16.50;99.90
17740;DHT22;8990;33.226;-97.150;2024-02-16T15:14:12;16.50;99.90
17740;DHT22;8990;33.226;-97.150;2024-02-16T15:16:44;16.50;99.90
17740;DHT22;8990;33.226;-97.150;2024-02-16T15:19:13;16.60;99.90
17740;DHT22;8990;33.226;-97.150;2024-02-16T15:21:43;16.60;99.90
17740;DHT22;8990;33.226;-97.150;2024-02-16T15:24:12;16.70;99.90
17740;DHT22;8990;33.226;-97.150;2024-02-16T15:26:41;16.70;99.90
17740;DHT22;8990;33.226;-97.150;2024-02-16T15:29:10;16.80;99.90
17740;DHT22;8990;33.226;-97.150;2024-02-16T15:31:39;16.80;99.90
17740;DHT22;8990;33.226;-97.150;2024-02-16T15:34:09;16.90;99.90
17740;DHT22;8990;33.226;-97.150;2024-02-16T15:36:40;17.00;99.90
17740;DHT22;8990;33.226;-97.150;2024-02-16T15:39:09;17.10;99.90
17740;DHT22;8990;33.226;-97.150;2024-02-16T15:41:39;17.10;99.90
17740;DHT22;8990;33.226;-97.150;2024-02-16T15:44:07;17.20;99.90